Terminal Aerodrome Forecast
Issued by NWS

Home | Current Version | Previous Version | Text Only | Print | Product List | Glossary Off
Versions: 1 2 3 4 5 6 7 8 9 10 11 12 13 14 15 16 17 18 19 20 21 22 23

136
FTUS43 KBIS 121725
TAFMOT
TAF
KMOT 121725Z 1218/1318 25014G22KT P6SM FEW250
     FM130300 28017G25KT P6SM BKN150 WS020/32045KT
     FM130500 29021G30KT P6SM BKN150
     FM131000 30025G35KT P6SM BKN030
     FM131200 30025G35KT P6SM BKN015=

USA.gov is the U.S. government's official web portal to all federal, state and local government web resources and services.